createdAt,value
2017-11-14T00:00:34.583Z,46.55
2017-11-14T00:03:02.038Z,46.78
2017-11-14T00:05:29.495Z,50.60
2017-11-14T00:07:56.951Z,35.95
2017-11-14T00:10:24.435Z,30.67
2017-11-14T00:12:51.896Z,33.72
2017-11-14T00:15:19.455Z,38.25
2017-11-14T00:17:46.910Z,37.50
2017-11-14T00:20:14.366Z,32.63
2017-11-14T00:22:41.923Z,38.72
2017-11-14T00:25:09.482Z,45.67
2017-11-14T00:27:36.946Z,64.12
2017-11-14T00:30:05.168Z,53.45
2017-11-14T00:32:32.639Z,32.83
2017-11-14T00:35:00.104Z,51.85
2017-11-14T00:37:27.558Z,51.92
2017-11-14T00:39:55.024Z,48.90
2017-11-14T00:42:22.491Z,41.45
2017-11-14T00:44:49.955Z,47.65
2017-11-14T00:47:17.455Z,50.78
2017-11-14T00:49:45.678Z,73.32
2017-11-14T00:52:13.137Z,57.15
2017-11-14T00:54:40.599Z,55.28
2017-11-14T00:57:08.051Z,51.75
2017-11-14T00:59:35.515Z,38.33
2017-11-14T01:02:02.974Z,43.70
2017-11-14T01:04:30.439Z,51.58
2017-11-14T01:06:57.891Z,50.70
2017-11-14T01:09:25.447Z,48.15
2017-11-14T01:11:52.898Z,54.97
2017-11-14T01:14:20.377Z,49.33
2017-11-14T01:16:47.827Z,54.65
2017-11-14T01:19:15.296Z,61.47
2017-11-14T01:21:42.751Z,64.90
2017-11-14T01:24:11.007Z,61.30
2017-11-14T01:26:38.466Z,59.28
2017-11-14T01:29:05.933Z,58.78
2017-11-14T01:31:33.472Z,67.07
2017-11-14T01:34:00.939Z,73.95
2017-11-14T01:36:28.383Z,53.97
2017-11-14T01:38:55.846Z,68.70
2017-11-14T01:41:23.295Z,64.40
2017-11-14T01:43:50.763Z,56.65
2017-11-14T01:46:18.211Z,48.03
2017-11-14T01:48:45.658Z,35.65
2017-11-14T01:51:13.130Z,44.13
2017-11-14T01:53:40.581Z,40.12
2017-11-14T01:56:08.042Z,41.65
2017-11-14T01:58:35.499Z,54.47
2017-11-14T02:01:03.734Z,65.30
2017-11-14T02:03:31.187Z,61.17
2017-11-14T02:05:58.649Z,67.57
2017-11-14T02:08:26.094Z,61.88
2017-11-14T02:10:53.562Z,66.35
2017-11-14T02:13:21.024Z,67.15
2017-11-14T02:15:48.479Z,59.67
2017-11-14T02:18:15.958Z,45.53
2017-11-14T02:20:43.387Z,55.47
2017-11-14T02:23:10.881Z,42.72
2017-11-14T02:25:38.333Z,49.65
2017-11-14T02:28:05.787Z,56.10
2017-11-14T02:30:33.243Z,53.75
2017-11-14T02:33:00.710Z,60.42
2017-11-14T02:35:28.265Z,58.63
2017-11-14T02:37:55.718Z,48.45
2017-11-14T02:40:23.176Z,46.22
2017-11-14T02:42:50.631Z,50.03
2017-11-14T02:45:18.123Z,43.47
2017-11-14T02:47:46.361Z,53.60
2017-11-14T02:50:13.822Z,50.70
2017-11-14T02:52:41.284Z,54.38
2017-11-14T02:55:08.844Z,51.67
2017-11-14T02:57:37.823Z,52.00
2017-11-14T03:00:05.393Z,45.78
2017-11-14T03:02:32.863Z,43.70
2017-11-14T03:05:01.081Z,46.70
2017-11-14T03:07:28.575Z,43.80
2017-11-14T03:09:56.030Z,48.95
2017-11-14T03:12:23.497Z,41.75
2017-11-14T03:14:52.451Z,41.60
2017-11-14T03:17:19.914Z,45.60
2017-11-14T03:19:47.368Z,47.30
2017-11-14T03:22:14.834Z,42.88
2017-11-14T03:24:42.295Z,46.00
2017-11-14T03:27:10.754Z,47.75
2017-11-14T03:29:38.263Z,41.22
2017-11-14T03:32:05.729Z,42.13
2017-11-14T03:34:33.949Z,37.70
2017-11-14T03:37:01.407Z,32.92
2017-11-14T03:39:28.862Z,32.22
2017-11-14T03:41:56.321Z,34.22
2017-11-14T03:44:23.777Z,34.30
2017-11-14T03:46:52.289Z,31.55
2017-11-14T03:49:19.843Z,34.33
2017-11-14T03:51:47.304Z,31.45
2017-11-14T03:54:14.763Z,30.40
2017-11-14T03:56:42.214Z,27.87
2017-11-14T03:59:09.674Z,33.42
2017-11-14T04:01:37.128Z,37.63
2017-11-14T04:04:04.683Z,38.45
2017-11-14T04:06:32.248Z,37.88
2017-11-14T04:08:59.719Z,40.88
2017-11-14T04:11:27.169Z,43.83
2017-11-14T04:13:54.635Z,42.58
2017-11-14T04:16:22.083Z,38.10
2017-11-14T04:18:49.548Z,41.67
2017-11-14T04:21:17.083Z,42.85
2017-11-14T04:23:44.542Z,44.10
2017-11-14T04:26:11.998Z,44.97
2017-11-14T04:28:39.501Z,49.13
2017-11-14T04:31:06.959Z,50.90
2017-11-14T04:33:34.410Z,49.65
2017-11-14T04:36:02.643Z,53.28
2017-11-14T04:38:30.102Z,45.80
2017-11-14T04:40:57.584Z,44.17
2017-11-14T04:43:25.031Z,46.22
2017-11-14T04:45:54.007Z,38.05
2017-11-14T04:48:21.456Z,35.80
2017-11-14T04:50:48.917Z,34.08
2017-11-14T04:53:16.376Z,34.75
2017-11-14T04:55:43.834Z,37.33
2017-11-14T04:58:11.292Z,35.50
2017-11-14T05:00:38.841Z,35.40
2017-11-14T05:03:06.411Z,36.00
2017-11-14T05:05:35.715Z,36.42
2017-11-14T05:08:03.165Z,32.22
2017-11-14T05:10:30.632Z,32.03
2017-11-14T05:12:58.082Z,32.38
2017-11-14T05:15:25.542Z,30.85
2017-11-14T05:17:52.999Z,33.33
2017-11-14T05:20:20.451Z,34.72
2017-11-14T05:22:47.915Z,34.42
2017-11-14T05:25:18.239Z,31.05
2017-11-14T05:27:45.698Z,32.17
2017-11-14T05:30:13.151Z,31.52
2017-11-14T05:32:40.612Z,32.95
2017-11-14T05:35:08.063Z,31.87
2017-11-14T05:37:35.522Z,32.30
2017-11-14T05:40:02.967Z,27.80
2017-11-14T05:42:30.430Z,28.60
2017-11-14T05:44:57.891Z,26.92
2017-11-14T05:47:25.439Z,27.13
2017-11-14T05:49:52.998Z,30.17
2017-11-14T05:54:55.059Z,22.05
2017-11-14T05:57:22.509Z,22.20
2017-11-14T05:59:49.975Z,25.52
2017-11-14T06:02:17.444Z,26.00
2017-11-14T06:04:44.888Z,27.65
2017-11-14T06:07:12.343Z,28.65
2017-11-14T06:09:39.807Z,25.80
2017-11-14T06:12:07.268Z,29.87
2017-11-14T06:14:34.738Z,29.23
2017-11-14T06:17:02.194Z,29.70
2017-11-14T06:19:29.654Z,29.80
2017-11-14T06:21:57.199Z,28.20
2017-11-14T06:24:24.756Z,30.83
2017-11-14T06:26:52.206Z,29.77
2017-11-14T06:29:19.660Z,27.48
2017-11-14T06:31:47.118Z,30.90
2017-11-14T06:34:14.573Z,27.27
2017-11-14T06:36:42.038Z,28.80
2017-11-14T06:39:09.486Z,28.45
2017-11-14T06:41:37.059Z,33.65
2017-11-14T06:44:04.507Z,36.25
2017-11-14T06:46:32.076Z,34.03
2017-11-14T06:48:59.514Z,33.50
2017-11-14T06:51:26.977Z,35.42
2017-11-14T06:53:54.428Z,35.22
2017-11-14T06:56:21.893Z,33.10
2017-11-14T06:58:49.343Z,31.27
2017-11-14T07:01:16.802Z,34.38
2017-11-14T07:03:44.245Z,30.50
2017-11-14T07:06:11.859Z,34.65
2017-11-14T07:08:40.074Z,33.33
2017-11-14T07:11:07.535Z,34.65
2017-11-14T07:13:34.984Z,38.13
2017-11-14T07:16:02.473Z,32.88
2017-11-14T07:18:30.042Z,32.88
2017-11-14T07:20:57.495Z,31.37
2017-11-14T07:23:24.946Z,65.93
2017-11-14T07:25:52.425Z,53.17
2017-11-14T07:28:19.878Z,44.42
2017-11-14T07:30:47.336Z,42.03
2017-11-14T07:33:14.796Z,34.70
2017-11-14T07:35:42.249Z,40.45
2017-11-14T07:38:09.711Z,36.67
2017-11-14T07:40:37.930Z,38.15
2017-11-14T07:43:05.387Z,49.63
2017-11-14T07:45:32.839Z,43.28
2017-11-14T07:48:00.331Z,39.35
2017-11-14T07:50:27.782Z,37.10
2017-11-14T07:52:55.238Z,45.10
2017-11-14T07:55:22.802Z,43.15
2017-11-14T07:57:50.264Z,43.28
2017-11-14T08:00:17.704Z,47.22
2017-11-14T08:02:45.162Z,41.20
2017-11-14T08:05:12.615Z,38.03
2017-11-14T08:07:40.183Z,36.80
2017-11-14T08:10:07.639Z,46.67
2017-11-14T08:12:35.123Z,38.38
2017-11-14T08:15:02.581Z,35.15
2017-11-14T08:17:30.807Z,36.60
2017-11-14T08:19:58.267Z,38.97
2017-11-14T08:22:25.718Z,37.97
2017-11-14T08:24:53.182Z,37.63
2017-11-14T08:27:20.630Z,36.45
2017-11-14T08:29:48.089Z,34.90
2017-11-14T08:32:15.541Z,34.10
2017-11-14T08:34:42.998Z,33.50
2017-11-14T08:37:10.459Z,27.83
2017-11-14T08:39:37.915Z,26.95
2017-11-14T08:42:05.372Z,29.83
2017-11-14T08:44:32.830Z,25.15
2017-11-14T08:47:00.290Z,24.70
2017-11-14T08:49:27.753Z,25.20
2017-11-14T08:51:55.224Z,23.50
2017-11-14T08:54:22.693Z,23.08
2017-11-14T08:56:50.243Z,20.15
2017-11-14T08:59:17.696Z,21.90
2017-11-14T09:01:45.146Z,22.75
2017-11-14T09:04:12.602Z,23.20
2017-11-14T09:06:40.050Z,21.20
2017-11-14T09:09:07.500Z,22.90
2017-11-14T09:11:34.954Z,24.10
2017-11-14T09:14:02.408Z,22.95
2017-11-14T09:16:29.861Z,24.00
2017-11-14T09:18:57.320Z,24.77
2017-11-14T09:21:24.798Z,22.67
2017-11-14T09:23:52.247Z,22.60
2017-11-14T09:26:19.711Z,22.17
2017-11-14T09:28:47.159Z,23.27
2017-11-14T09:31:14.614Z,21.23
2017-11-14T09:33:42.058Z,20.20
2017-11-14T09:36:09.516Z,21.90
2017-11-14T09:38:36.971Z,21.73
2017-11-14T09:41:04.437Z,21.08
2017-11-14T09:43:31.915Z,21.17
2017-11-14T09:45:59.370Z,18.02
2017-11-14T09:48:26.818Z,21.10
2017-11-14T09:50:54.281Z,22.02
2017-11-14T09:53:21.826Z,19.37
2017-11-14T09:55:49.318Z,22.77
2017-11-14T09:58:16.770Z,23.45
2017-11-14T10:00:44.318Z,22.05
2017-11-14T10:03:11.771Z,23.92
2017-11-14T10:05:39.222Z,20.88
2017-11-14T10:08:06.710Z,20.42
2017-11-14T10:10:34.162Z,18.30
2017-11-14T10:13:01.624Z,23.20
2017-11-14T10:15:29.154Z,20.05
2017-11-14T10:17:56.614Z,18.80
2017-11-14T10:20:24.062Z,19.27
2017-11-14T10:22:51.631Z,20.05
2017-11-14T10:25:19.083Z,19.50
2017-11-14T10:27:46.544Z,22.13
2017-11-14T10:30:13.997Z,18.33
2017-11-14T10:32:41.464Z,18.87
2017-11-14T10:35:09.015Z,20.75
2017-11-14T10:37:36.683Z,17.30
2017-11-14T10:40:04.131Z,20.05
2017-11-14T10:42:31.722Z,17.62
2017-11-14T10:44:59.970Z,13.65
2017-11-14T10:47:27.432Z,13.75
2017-11-14T10:49:54.983Z,13.02
2017-11-14T10:52:22.448Z,11.30
2017-11-14T10:54:50.003Z,10.95
2017-11-14T10:57:17.462Z,8.10
2017-11-14T10:59:45.010Z,9.38
2017-11-14T11:02:12.482Z,10.18
2017-11-14T11:04:41.440Z,8.40
2017-11-14T11:07:08.927Z,7.70
2017-11-14T11:09:36.384Z,10.93
2017-11-14T11:12:03.939Z,7.70
2017-11-14T11:14:32.175Z,8.18
2017-11-14T11:16:59.622Z,7.62
2017-11-14T11:19:27.079Z,10.68
2017-11-14T11:21:54.535Z,11.12
2017-11-14T11:24:22.003Z,10.68
2017-11-14T11:26:49.447Z,9.65
2017-11-14T11:29:16.950Z,11.02
2017-11-14T11:31:44.511Z,9.75
2017-11-14T11:34:12.018Z,9.52
2017-11-14T11:36:39.532Z,10.43
2017-11-14T11:39:07.087Z,9.82
2017-11-14T11:41:34.532Z,10.60
2017-11-14T11:44:02.082Z,9.75
2017-11-14T11:46:29.535Z,9.75
2017-11-14T11:48:56.994Z,9.60
2017-11-14T11:51:24.441Z,9.13
2017-11-14T11:53:51.895Z,9.90
2017-11-14T11:56:19.388Z,9.57
2017-11-14T11:58:46.854Z,8.95
2017-11-14T12:01:14.307Z,9.85
2017-11-14T12:03:42.546Z,10.60
2017-11-14T12:06:10.026Z,10.55
2017-11-14T12:08:37.484Z,10.75
2017-11-14T12:11:04.945Z,9.57
2017-11-14T12:13:32.496Z,11.30
2017-11-14T12:16:00.058Z,12.27
2017-11-14T12:18:27.519Z,10.95
2017-11-14T12:20:54.979Z,10.15
2017-11-14T12:23:22.439Z,10.73
2017-11-14T12:25:49.898Z,11.15
2017-11-14T12:28:17.449Z,10.68
2017-11-14T12:30:44.909Z,11.98
2017-11-14T12:33:12.363Z,11.35
2017-11-14T12:35:39.830Z,11.90
2017-11-14T12:38:07.291Z,10.80
2017-11-14T12:40:35.516Z,10.45
2017-11-14T12:43:02.974Z,9.75
2017-11-14T12:45:30.467Z,11.35
2017-11-14T12:47:57.914Z,9.77
2017-11-14T12:50:25.372Z,8.55
2017-11-14T12:52:52.936Z,8.98
2017-11-14T12:55:20.416Z,8.32
2017-11-14T12:57:48.632Z,9.48
2017-11-14T13:00:16.078Z,8.25
2017-11-14T13:02:43.536Z,8.75
2017-11-14T13:05:10.978Z,9.15
2017-11-14T13:07:38.487Z,9.98
2017-11-14T13:10:05.947Z,10.80
2017-11-14T13:12:33.416Z,10.57
2017-11-14T13:15:00.874Z,10.10
2017-11-14T13:17:28.419Z,10.27
2017-11-14T13:19:55.875Z,10.57
2017-11-14T13:22:23.342Z,10.93
2017-11-14T13:24:50.891Z,11.20
2017-11-14T13:27:18.351Z,10.27
2017-11-14T13:29:45.807Z,9.80
2017-11-14T13:32:13.267Z,9.93
2017-11-14T13:34:40.726Z,9.30
2017-11-14T13:37:08.194Z,10.32
2017-11-14T13:39:35.653Z,10.65
2017-11-14T13:42:03.111Z,9.75
2017-11-14T13:44:31.329Z,10.40
2017-11-14T13:46:58.830Z,10.30
2017-11-14T13:49:26.387Z,9.98
2017-11-14T13:51:53.861Z,10.50
2017-11-14T13:54:21.298Z,9.30
2017-11-14T13:56:48.784Z,9.45
2017-11-14T13:59:16.996Z,9.48
2017-11-14T14:01:44.451Z,9.25
2017-11-14T14:04:11.957Z,10.18
2017-11-14T14:06:39.412Z,11.45
2017-11-14T14:09:06.863Z,9.18
2017-11-14T14:11:34.403Z,9.00
2017-11-14T14:14:01.862Z,9.98
2017-11-14T14:16:29.414Z,11.25
2017-11-14T14:18:56.879Z,9.95
2017-11-14T14:21:24.453Z,10.02
2017-11-14T14:23:51.906Z,11.00
2017-11-14T14:26:19.363Z,11.05
2017-11-14T14:28:46.826Z,9.23
2017-11-14T14:31:14.289Z,10.25
2017-11-14T14:33:41.823Z,11.45
2017-11-14T14:36:09.274Z,12.40
2017-11-14T14:38:36.739Z,10.68
2017-11-14T14:41:04.184Z,9.77
2017-11-14T14:43:31.656Z,9.18
2017-11-14T14:45:59.206Z,9.02
2017-11-14T14:48:26.672Z,10.98
2017-11-14T14:50:54.119Z,9.90
2017-11-14T14:53:21.580Z,10.63
2017-11-14T14:55:49.138Z,10.70
2017-11-14T14:58:16.590Z,11.30
2017-11-14T15:00:44.061Z,11.85
2017-11-14T15:03:11.605Z,11.63
2017-11-14T15:05:39.066Z,11.45
2017-11-14T15:08:06.515Z,13.77
2017-11-14T15:10:33.975Z,11.38
2017-11-14T15:13:01.427Z,12.70
2017-11-14T15:15:28.994Z,10.30
2017-11-14T15:17:56.455Z,13.65
2017-11-14T15:20:23.919Z,14.98
2017-11-14T15:22:51.375Z,15.88
2017-11-14T15:25:18.831Z,17.23
2017-11-14T15:27:46.283Z,17.52
2017-11-14T15:30:13.748Z,18.48
2017-11-14T15:32:41.290Z,17.67
2017-11-14T15:35:08.746Z,20.17
2017-11-14T15:37:36.195Z,16.35
2017-11-14T15:40:03.654Z,18.50
2017-11-14T15:42:31.106Z,19.20
2017-11-14T15:44:58.607Z,18.25
2017-11-14T15:47:26.142Z,17.52
2017-11-14T15:49:53.592Z,18.98
2017-11-14T15:52:21.147Z,18.15
2017-11-14T15:54:48.595Z,17.65
2017-11-14T15:57:16.051Z,15.65
2017-11-14T15:59:43.523Z,15.55
2017-11-14T16:02:11.078Z,18.73
2017-11-14T16:04:38.548Z,18.15
2017-11-14T16:07:06.095Z,17.87
2017-11-14T16:09:33.548Z,18.42
2017-11-14T16:12:01.007Z,17.83
2017-11-14T16:14:28.462Z,15.60
2017-11-14T16:16:56.023Z,17.17
2017-11-14T16:19:23.463Z,17.60
2017-11-14T16:21:50.928Z,18.23
2017-11-14T16:24:18.402Z,20.42
2017-11-14T16:26:45.855Z,18.35
2017-11-14T16:29:13.301Z,19.98
2017-11-14T16:31:40.758Z,24.33
2017-11-14T16:34:08.211Z,19.42
2017-11-14T16:36:35.774Z,94.05
2017-11-14T16:39:03.231Z,31.37
2017-11-14T16:41:30.697Z,22.58
2017-11-14T16:43:58.143Z,20.45
2017-11-14T16:46:25.707Z,21.65
2017-11-14T16:48:53.150Z,21.60
2017-11-14T16:51:20.606Z,22.25
2017-11-14T16:53:48.062Z,22.35
2017-11-14T16:56:15.519Z,19.73
2017-11-14T16:58:42.993Z,22.60
2017-11-14T17:01:10.442Z,22.45
2017-11-14T17:03:37.890Z,25.55
2017-11-14T17:06:05.354Z,22.52
2017-11-14T17:08:32.817Z,22.70
2017-11-14T17:11:00.267Z,28.10
2017-11-14T17:13:27.732Z,21.05
2017-11-14T17:15:55.192Z,21.92
2017-11-14T17:18:22.641Z,23.58
2017-11-14T17:20:50.090Z,22.15
2017-11-14T17:23:17.536Z,20.95
2017-11-14T17:25:44.991Z,19.80
2017-11-14T17:28:12.448Z,22.15
2017-11-14T17:30:39.903Z,20.62
2017-11-14T17:33:07.357Z,20.95
2017-11-14T17:35:34.814Z,20.12
2017-11-14T17:38:02.307Z,21.33
2017-11-14T17:40:29.754Z,22.50
2017-11-14T17:42:57.206Z,23.62
2017-11-14T17:45:24.766Z,22.30
2017-11-14T17:47:52.224Z,21.58
2017-11-14T17:50:19.675Z,21.80
2017-11-14T17:52:47.242Z,21.95
2017-11-14T17:55:14.693Z,24.52
2017-11-14T17:57:42.153Z,22.17
2017-11-14T18:00:09.603Z,27.45
2017-11-14T18:02:37.059Z,24.90
2017-11-14T18:05:04.514Z,27.00
2017-11-14T18:07:31.986Z,23.17
2017-11-14T18:09:59.443Z,24.50
2017-11-14T18:12:26.899Z,23.90
2017-11-14T18:14:54.351Z,28.38
2017-11-14T18:17:21.813Z,26.80
2017-11-14T18:19:49.257Z,31.35
2017-11-14T18:22:16.758Z,30.98
2017-11-14T18:24:45.003Z,30.73
2017-11-14T18:27:12.460Z,29.23
2017-11-14T18:29:39.918Z,29.95
2017-11-14T18:32:07.367Z,29.35
2017-11-14T18:34:34.823Z,28.30
2017-11-14T18:37:02.278Z,28.70
2017-11-14T18:39:29.733Z,28.17
2017-11-14T18:41:57.189Z,26.60
2017-11-14T18:44:24.651Z,30.77
2017-11-14T18:46:52.115Z,28.98
2017-11-14T18:49:19.574Z,28.75
2017-11-14T18:51:47.032Z,34.53
2017-11-14T18:54:14.588Z,29.95
2017-11-14T18:56:42.150Z,33.78
2017-11-14T18:59:09.604Z,33.15
2017-11-14T19:01:37.060Z,30.77
2017-11-14T19:04:04.514Z,28.50
2017-11-14T19:06:31.970Z,30.30
2017-11-14T19:09:01.158Z,30.92
2017-11-14T19:11:28.719Z,35.05
2017-11-14T19:13:56.190Z,37.55
2017-11-14T19:16:23.643Z,37.53
2017-11-14T19:18:51.099Z,38.53
2017-11-14T19:21:18.564Z,40.22
2017-11-14T19:23:46.892Z,38.83
2017-11-14T19:26:14.345Z,35.15
2017-11-14T19:28:41.837Z,36.15
2017-11-14T19:31:09.295Z,32.95
2017-11-14T19:33:36.747Z,34.22
2017-11-14T19:36:04.202Z,35.83
2017-11-14T19:38:31.659Z,36.97
2017-11-14T19:40:59.126Z,36.58
2017-11-14T19:43:26.577Z,37.08
2017-11-14T19:45:54.032Z,40.80
2017-11-14T19:48:21.476Z,38.45
2017-11-14T19:50:48.945Z,40.63
2017-11-14T19:53:16.391Z,36.70
2017-11-14T19:55:43.852Z,33.60
2017-11-14T19:58:11.303Z,33.47
2017-11-14T20:00:38.763Z,33.28
2017-11-14T20:03:06.395Z,34.15
2017-11-14T20:05:33.886Z,28.98
2017-11-14T20:08:01.350Z,27.73
2017-11-14T20:10:28.794Z,31.85
2017-11-14T20:12:56.253Z,39.63
2017-11-14T20:15:23.713Z,40.35
2017-11-14T20:17:51.166Z,43.13
2017-11-14T20:20:18.611Z,39.80
2017-11-14T20:22:46.079Z,39.63
2017-11-14T20:25:13.533Z,40.58
2017-11-14T20:27:41.211Z,39.00
2017-11-14T20:30:10.166Z,37.63
2017-11-14T20:32:37.647Z,41.85
2017-11-14T20:35:05.107Z,39.22
2017-11-14T20:37:32.568Z,39.33
2017-11-14T20:40:00.018Z,36.78
2017-11-14T20:42:27.638Z,37.38
2017-11-14T20:44:55.085Z,37.83
2017-11-14T20:47:22.546Z,40.28
2017-11-14T20:49:50.002Z,37.45
2017-11-14T20:52:18.219Z,37.25
2017-11-14T20:54:45.667Z,32.35
2017-11-14T20:57:13.147Z,33.15
2017-11-14T20:59:40.595Z,43.20
2017-11-14T21:02:08.159Z,44.92
2017-11-14T21:04:35.614Z,42.58
2017-11-14T21:07:03.074Z,46.40
2017-11-14T21:09:30.627Z,44.88
2017-11-14T21:11:58.086Z,39.70
2017-11-14T21:14:25.543Z,32.53
2017-11-14T21:16:53.101Z,31.12
2017-11-14T21:19:20.560Z,33.55
2017-11-14T21:21:48.008Z,28.85
2017-11-14T21:24:15.474Z,30.60
2017-11-14T21:26:42.950Z,29.52
2017-11-14T21:29:10.396Z,33.10
2017-11-14T21:31:37.945Z,34.38
2017-11-14T21:34:05.407Z,39.63
2017-11-14T21:36:32.857Z,35.35
2017-11-14T21:39:00.318Z,35.72
2017-11-14T21:41:27.777Z,32.97
2017-11-14T21:43:55.234Z,31.58
2017-11-14T21:46:22.784Z,31.62
2017-11-14T21:48:50.270Z,35.03
2017-11-14T21:51:18.482Z,34.15
2017-11-14T21:53:45.934Z,36.03
2017-11-14T21:56:13.390Z,32.05
2017-11-14T21:58:40.848Z,30.02
2017-11-14T22:02:37.322Z,35.75
2017-11-14T22:05:04.774Z,40.47
2017-11-14T22:07:32.231Z,37.97
2017-11-14T22:09:59.796Z,35.20
2017-11-14T22:12:27.247Z,37.65
2017-11-14T22:14:54.703Z,36.28
2017-11-14T22:17:22.167Z,37.78
2017-11-14T22:19:49.626Z,33.17
2017-11-14T22:22:17.117Z,36.33
2017-11-14T22:24:45.337Z,34.78
2017-11-14T22:27:12.788Z,37.72
2017-11-14T22:29:40.250Z,40.20
2017-11-14T22:32:07.711Z,40.92
2017-11-14T22:34:35.163Z,39.28
2017-11-14T22:37:02.620Z,43.67
2017-11-14T22:39:30.078Z,36.92
2017-11-14T22:41:57.533Z,41.00
2017-11-14T22:44:24.990Z,39.50
2017-11-14T22:46:52.450Z,37.60
2017-11-14T22:49:19.919Z,35.63
2017-11-14T22:51:47.377Z,40.50
2017-11-14T22:54:14.936Z,36.60
2017-11-14T22:56:42.402Z,40.20
2017-11-14T22:59:09.977Z,39.75
2017-11-14T23:01:37.434Z,40.88
2017-11-14T23:04:05.654Z,42.17
2017-11-14T23:06:33.113Z,40.17
2017-11-14T23:09:00.569Z,41.63
2017-11-14T23:11:28.031Z,37.92
2017-11-14T23:13:55.486Z,41.05
2017-11-14T23:16:22.934Z,42.60
2017-11-14T23:18:50.394Z,40.17
2017-11-14T23:21:17.861Z,41.05
2017-11-14T23:23:45.306Z,36.10
2017-11-14T23:26:12.791Z,39.17
2017-11-14T23:28:40.241Z,40.00
2017-11-14T23:31:07.701Z,41.63
2017-11-14T23:33:35.157Z,36.45
2017-11-14T23:36:02.605Z,34.47
2017-11-14T23:38:30.067Z,35.65
2017-11-14T23:40:57.519Z,33.25
2017-11-14T23:43:24.983Z,30.30
2017-11-14T23:45:52.439Z,33.50
2017-11-14T23:48:20.003Z,32.95
2017-11-14T23:50:47.459Z,31.50
2017-11-14T23:53:14.926Z,35.13
2017-11-14T23:55:42.378Z,32.50
2017-11-14T23:58:09.932Z,35.35
